createdAt,value
2019-02-23T00:00:24.432Z,4.40
2019-02-23T00:02:52.915Z,4.30
2019-02-23T00:05:21.415Z,4.30
2019-02-23T00:07:49.868Z,4.30
2019-02-23T00:10:18.324Z,4.30
2019-02-23T00:12:46.854Z,4.20
2019-02-23T00:15:15.277Z,4.30
2019-02-23T00:17:43.726Z,4.30
2019-02-23T00:20:12.151Z,4.30
2019-02-23T00:22:40.707Z,4.20
2019-02-23T00:25:09.266Z,4.20
2019-02-23T00:27:37.729Z,4.20
2019-02-23T00:30:07.299Z,4.20
2019-02-23T00:32:35.749Z,4.20
2019-02-23T00:35:04.251Z,4.10
2019-02-23T00:37:32.704Z,4.10
2019-02-23T00:40:01.188Z,4.00
2019-02-23T00:42:29.685Z,4.00
2019-02-23T00:44:58.119Z,4.00
2019-02-23T00:47:26.583Z,3.90
2019-02-23T00:49:55.019Z,3.90
2019-02-23T00:52:23.555Z,3.80
2019-02-23T00:54:51.991Z,3.80
2019-02-23T00:57:20.448Z,3.70
2019-02-23T00:59:48.967Z,3.60
2019-02-23T01:02:17.420Z,3.50
2019-02-23T01:04:45.858Z,3.50
2019-02-23T01:07:14.384Z,3.40
2019-02-23T01:09:43.099Z,3.40
2019-02-23T01:12:11.629Z,3.30
2019-02-23T01:14:40.070Z,3.30
2019-02-23T01:17:08.595Z,3.30
2019-02-23T01:19:47.370Z,3.20
2019-02-23T01:22:07.289Z,3.20
2019-02-23T01:24:35.968Z,3.20
2019-02-23T01:27:04.643Z,3.20
2019-02-23T01:29:33.202Z,3.20
2019-02-23T01:32:02.026Z,3.20
2019-02-23T01:34:30.470Z,3.20
2019-02-23T01:36:58.998Z,3.20
2019-02-23T01:39:27.622Z,3.10
2019-02-23T01:41:56.565Z,3.10
2019-02-23T01:44:44.447Z,3.00
2019-02-23T01:47:32.254Z,3.10
2019-02-23T01:50:00.767Z,3.10
2019-02-23T01:52:29.231Z,3.00
2019-02-23T01:54:57.915Z,3.00
2019-02-23T01:57:26.369Z,3.00
2019-02-23T01:59:54.810Z,3.00
2019-02-23T02:02:23.283Z,2.90
2019-02-23T02:05:11.056Z,2.90
2019-02-23T02:07:58.850Z,2.80
2019-02-23T02:10:27.487Z,2.80
2019-02-23T02:12:55.939Z,2.80
2019-02-23T02:15:24.394Z,2.80
2019-02-23T02:17:52.975Z,2.80
2019-02-23T02:20:21.430Z,2.80
2019-02-23T02:22:49.951Z,2.80
2019-02-23T02:25:18.393Z,2.70
2019-02-23T02:27:46.883Z,2.70
2019-02-23T02:30:15.411Z,2.70
2019-02-23T02:32:43.911Z,2.70
2019-02-23T02:35:12.447Z,2.70
2019-02-23T02:37:40.954Z,2.60
2019-02-23T02:40:09.969Z,2.60
2019-02-23T02:42:38.439Z,2.60
2019-02-23T02:45:29.189Z,2.50
2019-02-23T02:47:57.648Z,2.50
2019-02-23T02:50:45.443Z,2.50
2019-02-23T02:53:14.866Z,2.50
2019-02-23T02:55:43.924Z,2.50
2019-02-23T02:58:12.967Z,2.40
2019-02-23T03:00:41.406Z,2.50
2019-02-23T03:03:09.858Z,2.40
2019-02-23T03:05:57.893Z,2.40
2019-02-23T03:08:26.322Z,2.40
2019-02-23T03:10:54.766Z,2.40
2019-02-23T03:13:23.235Z,2.40
2019-02-23T03:15:51.675Z,2.30
2019-02-23T03:18:20.118Z,2.30
2019-02-23T03:20:48.589Z,2.30
2019-02-23T03:23:17.109Z,2.30
2019-02-23T03:25:45.630Z,2.30
2019-02-23T03:28:14.174Z,2.20
2019-02-23T03:30:42.616Z,2.20
2019-02-23T03:33:11.055Z,2.20
2019-02-23T03:35:39.632Z,2.20
2019-02-23T03:38:08.075Z,2.10
2019-02-23T03:40:36.791Z,2.10
2019-02-23T03:43:05.506Z,2.10
2019-02-23T03:45:33.945Z,2.00
2019-02-23T03:48:02.395Z,2.00
2019-02-23T03:50:30.854Z,2.00
2019-02-23T03:52:59.294Z,2.00
2019-02-23T03:55:28.080Z,2.00
2019-02-23T03:57:56.596Z,2.10
2019-02-23T04:00:25.977Z,2.00
2019-02-23T04:02:55.519Z,1.90
2019-02-23T04:05:24.994Z,1.90
2019-02-23T04:07:53.429Z,1.80
2019-02-23T04:10:22.194Z,1.80
2019-02-23T04:13:10.006Z,1.80
2019-02-23T04:15:57.867Z,1.80
2019-02-23T04:18:26.343Z,1.70
2019-02-23T04:21:01.799Z,1.70
2019-02-23T04:23:24.960Z,1.60
2019-02-23T04:25:53.496Z,1.50
2019-02-23T04:28:22.018Z,1.50
2019-02-23T04:30:50.461Z,1.40
2019-02-23T04:33:18.923Z,1.40
2019-02-23T04:35:47.374Z,1.40
2019-02-23T04:38:35.184Z,1.40
2019-02-23T04:41:03.695Z,1.40
2019-02-23T04:43:32.214Z,1.40
2019-02-23T04:46:00.671Z,1.40
2019-02-23T04:48:29.116Z,1.40
2019-02-23T04:50:57.565Z,1.30
2019-02-23T04:53:26.035Z,1.30
2019-02-23T04:55:54.521Z,1.30
2019-02-23T04:58:23.008Z,1.30
2019-02-23T05:00:51.479Z,1.20
2019-02-23T05:03:19.924Z,1.20
2019-02-23T05:05:48.372Z,1.10
2019-02-23T05:08:16.845Z,1.10
2019-02-23T05:10:45.366Z,1.10
2019-02-23T05:13:13.807Z,1.10
2019-02-23T05:15:42.367Z,1.10
2019-02-23T05:18:10.878Z,1.10
2019-02-23T05:20:39.322Z,1.00
2019-02-23T05:23:07.790Z,1.00
2019-02-23T05:25:36.229Z,1.00
2019-02-23T05:28:04.745Z,1.10
2019-02-23T05:30:33.214Z,1.10
2019-02-23T05:33:01.674Z,1.10
2019-02-23T05:35:30.176Z,1.20
2019-02-23T05:37:58.639Z,1.20
2019-02-23T05:40:27.078Z,1.20
2019-02-23T05:43:01.052Z,1.20
2019-02-23T05:45:25.712Z,1.20
2019-02-23T05:47:54.275Z,1.20
2019-02-23T05:50:22.755Z,1.20
2019-02-23T05:53:10.633Z,1.10
2019-02-23T05:55:39.070Z,1.10
2019-02-23T05:58:26.889Z,1.10
2019-02-23T06:00:55.398Z,1.00
2019-02-23T06:03:23.852Z,1.00
2019-02-23T06:05:52.458Z,1.00
2019-02-23T06:08:20.976Z,1.00
2019-02-23T06:11:08.846Z,1.00
2019-02-23T06:13:37.296Z,1.00
2019-02-23T06:16:25.094Z,1.00
2019-02-23T06:18:53.537Z,0.90
2019-02-23T06:21:52.812Z,0.90
2019-02-23T06:24:30.843Z,1.00
2019-02-23T06:26:59.307Z,0.90
2019-02-23T06:29:27.750Z,0.90
2019-02-23T06:31:56.200Z,0.90
2019-02-23T06:34:44.000Z,0.90
2019-02-23T06:37:12.455Z,0.90
2019-02-23T06:39:40.965Z,0.80
2019-02-23T06:42:09.434Z,0.80
2019-02-23T06:44:39.647Z,0.70
2019-02-23T06:47:09.048Z,0.70
2019-02-23T06:49:37.506Z,0.70
2019-02-23T06:52:25.287Z,0.70
2019-02-23T06:54:53.758Z,0.70
2019-02-23T06:57:22.272Z,0.70
2019-02-23T06:59:50.716Z,0.70
2019-02-23T07:02:19.176Z,0.80
2019-02-23T07:04:47.635Z,0.90
2019-02-23T07:07:16.284Z,1.00
2019-02-23T07:09:44.796Z,1.10
2019-02-23T07:12:13.240Z,1.20
2019-02-23T07:14:41.776Z,1.20
2019-02-23T07:17:10.279Z,1.20
2019-02-23T07:19:38.727Z,1.30
2019-02-23T07:22:15.101Z,1.30
2019-02-23T07:24:37.366Z,1.40
2019-02-23T07:27:05.831Z,1.50
2019-02-23T07:29:34.274Z,1.60
2019-02-23T07:32:03.140Z,1.70
2019-02-23T07:34:31.675Z,1.80
2019-02-23T07:37:00.115Z,1.90
2019-02-23T07:39:28.556Z,2.10
2019-02-23T07:41:57.085Z,2.20
2019-02-23T07:44:25.615Z,2.40
2019-02-23T07:46:54.078Z,2.60
2019-02-23T07:49:22.542Z,2.70
2019-02-23T07:51:51.059Z,2.90
2019-02-23T07:54:19.521Z,3.00
2019-02-23T07:56:48.058Z,3.20
2019-02-23T07:59:16.504Z,3.30
2019-02-23T08:01:44.974Z,3.30
2019-02-23T08:04:13.412Z,3.70
2019-02-23T08:06:41.846Z,4.00
2019-02-23T08:09:12.123Z,4.10
2019-02-23T08:11:40.559Z,4.30
2019-02-23T08:14:09.018Z,4.40
2019-02-23T08:16:37.559Z,4.60
2019-02-23T08:19:06.107Z,4.70
2019-02-23T08:21:34.567Z,5.00
2019-02-23T08:24:03.286Z,5.20
2019-02-23T08:26:32.199Z,5.50
2019-02-23T08:29:00.802Z,5.30
2019-02-23T08:31:29.332Z,5.30
2019-02-23T08:33:57.841Z,5.50
2019-02-23T08:36:26.283Z,5.30
2019-02-23T08:38:54.882Z,5.20
2019-02-23T08:41:23.359Z,5.40
2019-02-23T08:44:04.267Z,5.90
2019-02-23T08:46:32.842Z,5.70
2019-02-23T08:49:01.368Z,5.90
2019-02-23T08:51:29.802Z,6.00
2019-02-23T08:53:58.337Z,5.40
2019-02-23T08:56:26.778Z,5.50
2019-02-23T08:58:55.244Z,5.80
2019-02-23T09:01:23.687Z,5.80
2019-02-23T09:03:52.153Z,5.90
2019-02-23T09:06:20.591Z,5.90
2019-02-23T09:08:49.123Z,5.70
2019-02-23T09:11:17.568Z,5.80
2019-02-23T09:13:46.043Z,6.00
2019-02-23T09:16:14.558Z,6.20
2019-02-23T09:18:43.130Z,6.00
2019-02-23T09:21:11.622Z,6.10
2019-02-23T09:23:40.523Z,6.30
2019-02-23T09:26:09.125Z,6.40
2019-02-23T09:28:38.158Z,6.90
2019-02-23T09:31:06.682Z,6.80
2019-02-23T09:33:35.307Z,7.30
2019-02-23T09:36:04.031Z,7.50
2019-02-23T09:38:32.483Z,7.40
2019-02-23T09:41:20.611Z,7.60
2019-02-23T09:43:49.524Z,7.40
2019-02-23T09:46:18.382Z,7.90
2019-02-23T09:48:47.071Z,8.10
2019-02-23T09:51:15.518Z,8.30
2019-02-23T09:53:43.976Z,8.30
2019-02-23T09:56:12.504Z,7.70
2019-02-23T09:58:40.950Z,7.70
2019-02-23T10:01:09.375Z,8.00
2019-02-23T10:03:37.838Z,8.20
2019-02-23T10:06:06.271Z,7.90
2019-02-23T10:08:34.707Z,8.10
2019-02-23T10:11:03.236Z,8.30
2019-02-23T10:13:31.719Z,8.40
2019-02-23T10:16:00.170Z,8.50
2019-02-23T10:18:28.628Z,8.50
2019-02-23T10:20:57.058Z,8.70
2019-02-23T10:23:25.496Z,9.10
2019-02-23T10:25:53.949Z,9.00
2019-02-23T10:28:22.394Z,9.20
2019-02-23T10:30:50.834Z,8.90
2019-02-23T10:33:19.290Z,8.70
2019-02-23T10:35:47.736Z,8.40
2019-02-23T10:38:16.255Z,8.40
2019-02-23T10:40:44.746Z,8.70
2019-02-23T10:43:25.036Z,8.90
2019-02-23T10:45:53.512Z,9.50
2019-02-23T10:48:22.029Z,9.60
2019-02-23T10:50:50.455Z,9.50
2019-02-23T10:53:18.922Z,9.90
2019-02-23T10:55:47.360Z,9.90
2019-02-23T10:58:15.811Z,10.00
2019-02-23T11:03:23.405Z,10.50
2019-02-23T11:06:11.135Z,10.40
2019-02-23T11:08:59.054Z,10.40
2019-02-23T11:11:27.532Z,10.80
2019-02-23T11:13:55.974Z,10.80
2019-02-23T11:16:24.410Z,10.30
2019-02-23T11:18:52.925Z,10.40
2019-02-23T11:21:21.437Z,10.40
2019-02-23T11:23:49.953Z,10.50
2019-02-23T11:26:18.561Z,10.50
2019-02-23T11:28:47.189Z,10.20
2019-02-23T11:31:15.640Z,10.30
2019-02-23T11:33:44.191Z,10.50
2019-02-23T11:36:12.638Z,10.50
2019-02-23T11:38:41.076Z,10.90
2019-02-23T11:41:09.759Z,10.60
2019-02-23T11:43:38.293Z,10.60
2019-02-23T11:46:06.735Z,10.90
2019-02-23T11:48:35.204Z,11.30
2019-02-23T11:51:03.647Z,11.30
2019-02-23T11:53:32.090Z,11.20
2019-02-23T11:56:00.557Z,11.30
2019-02-23T11:58:29.003Z,11.50
2019-02-23T12:00:57.548Z,11.30
2019-02-23T12:03:26.090Z,10.50
2019-02-23T12:05:54.644Z,10.60
2019-02-23T12:08:42.603Z,11.20
2019-02-23T12:11:11.110Z,11.70
2019-02-23T12:13:59.055Z,11.50
2019-02-23T12:16:27.561Z,11.60
2019-02-23T12:18:56.079Z,11.40
2019-02-23T12:21:24.543Z,11.40
2019-02-23T12:23:53.063Z,11.60
2019-02-23T12:26:21.501Z,11.60
2019-02-23T12:28:52.026Z,11.60
2019-02-23T12:31:20.474Z,11.80
2019-02-23T12:33:48.918Z,11.40
2019-02-23T12:36:17.468Z,11.70
2019-02-23T12:38:45.906Z,12.00
2019-02-23T12:41:14.587Z,11.50
2019-02-23T12:43:43.053Z,11.80
2019-02-23T12:46:11.509Z,11.80
2019-02-23T12:48:40.025Z,11.80
2019-02-23T12:51:08.580Z,11.70
2019-02-23T12:53:37.016Z,11.80
2019-02-23T12:56:23.610Z,12.20
2019-02-23T12:58:52.099Z,12.00
2019-02-23T13:01:20.538Z,11.40
2019-02-23T13:03:49.003Z,11.50
2019-02-23T13:06:17.439Z,11.30
2019-02-23T13:09:11.471Z,11.30
2019-02-23T13:11:40.137Z,11.60
2019-02-23T13:14:28.166Z,11.60
2019-02-23T13:17:17.547Z,11.40
2019-02-23T13:19:55.163Z,11.30
2019-02-23T13:22:38.703Z,11.20
2019-02-23T13:25:16.313Z,11.20
2019-02-23T13:27:56.751Z,11.50
2019-02-23T13:30:44.386Z,11.30
2019-02-23T13:33:21.419Z,11.00
2019-02-23T13:36:07.943Z,11.30
2019-02-23T13:38:57.217Z,11.80
2019-02-23T13:41:47.879Z,12.00
2019-02-23T13:44:19.556Z,11.80
2019-02-23T13:47:06.161Z,11.50
2019-02-23T13:49:54.382Z,11.30
2019-02-23T13:52:47.819Z,10.90
2019-02-23T13:55:52.915Z,10.40
2019-02-23T13:58:47.795Z,10.70
2019-02-23T14:01:38.920Z,10.60
2019-02-23T14:04:59.721Z,10.30
2019-02-23T14:07:33.905Z,10.10
2019-02-23T14:10:23.591Z,10.20
2019-02-23T14:13:14.191Z,10.30
2019-02-23T14:15:45.753Z,10.60
2019-02-23T14:18:33.702Z,10.70
2019-02-23T14:21:10.870Z,10.40
2019-02-23T14:24:00.267Z,9.80
2019-02-23T14:27:10.743Z,9.60
2019-02-23T14:29:50.928Z,9.70
2019-02-23T14:32:58.669Z,9.80
2019-02-23T14:35:55.468Z,9.80
2019-02-23T14:39:02.418Z,9.70
2019-02-23T14:42:10.259Z,9.70
2019-02-23T14:45:08.967Z,9.60
2019-02-23T14:48:00.459Z,9.70
2019-02-23T14:50:34.803Z,9.70
2019-02-23T14:53:24.339Z,9.60
2019-02-23T14:56:10.636Z,9.50
2019-02-23T14:58:44.970Z,9.60
2019-02-23T15:01:51.119Z,9.60
2019-02-23T15:04:43.464Z,9.60
2019-02-23T15:07:20.634Z,9.40
2019-02-23T15:09:54.608Z,9.20
2019-02-23T15:12:43.797Z,9.10
2019-02-23T15:15:23.880Z,9.20
2019-02-23T15:18:04.735Z,9.10
2019-02-23T15:20:58.204Z,9.10
2019-02-23T15:23:38.719Z,8.90
2019-02-23T15:26:43.603Z,8.70
2019-02-23T15:29:24.020Z,8.60
2019-02-23T15:31:58.617Z,8.40
2019-02-23T15:35:04.712Z,8.30
2019-02-23T15:37:52.532Z,8.30
2019-02-23T15:40:40.529Z,8.30
2019-02-23T15:43:14.684Z,8.20
2019-02-23T15:46:07.207Z,8.10
2019-02-23T15:48:57.769Z,8.00
2019-02-23T15:51:26.361Z,8.00
2019-02-23T15:53:54.955Z,7.90
2019-02-23T15:56:23.568Z,7.80
2019-02-23T15:58:52.144Z,7.80
2019-02-23T16:01:20.607Z,7.80
2019-02-23T16:03:49.186Z,7.70
2019-02-23T16:06:17.655Z,7.70
2019-02-23T16:08:46.090Z,7.60
2019-02-23T16:11:14.535Z,7.50
2019-02-23T16:13:43.111Z,7.50
2019-02-23T16:16:11.548Z,7.40
2019-02-23T16:18:40.264Z,7.30
2019-02-23T16:21:08.817Z,7.20
2019-02-23T16:23:37.333Z,7.20
2019-02-23T16:26:05.771Z,7.10
2019-02-23T16:28:34.239Z,7.10
2019-02-23T16:31:02.682Z,7.10
2019-02-23T16:33:31.195Z,7.10
2019-02-23T16:35:59.664Z,7.00
2019-02-23T16:38:28.231Z,6.90
2019-02-23T16:40:56.735Z,6.80
2019-02-23T16:43:25.299Z,6.90
2019-02-23T16:45:53.815Z,6.90
2019-02-23T16:48:22.324Z,6.80
2019-02-23T16:50:50.791Z,6.70
2019-02-23T16:53:19.345Z,6.60
2019-02-23T16:55:51.513Z,6.60
2019-02-23T16:58:18.056Z,6.50
2019-02-23T17:00:46.523Z,6.50
2019-02-23T17:03:15.004Z,6.50
2019-02-23T17:05:43.548Z,6.50
2019-02-23T17:08:12.054Z,6.40
2019-02-23T17:10:40.495Z,6.30
2019-02-23T17:16:03.667Z,6.20
2019-02-23T17:18:32.148Z,6.20
2019-02-23T17:21:00.586Z,6.20
2019-02-23T17:23:29.066Z,6.20
2019-02-23T17:26:04.219Z,6.10
2019-02-23T17:28:27.760Z,6.10
2019-02-23T17:30:56.194Z,6.10
2019-02-23T17:33:27.795Z,6.10
2019-02-23T17:35:54.901Z,6.10
2019-02-23T17:38:23.382Z,6.10
2019-02-23T17:40:51.900Z,6.10
2019-02-23T17:43:20.509Z,6.00
2019-02-23T17:45:48.959Z,6.00
2019-02-23T17:48:17.494Z,5.90
2019-02-23T17:50:46.034Z,5.80
2019-02-23T17:53:14.550Z,5.70
2019-02-23T17:55:43.023Z,5.70
2019-02-23T17:58:11.466Z,5.70
2019-02-23T18:00:39.973Z,5.70
2019-02-23T18:03:08.447Z,5.60
2019-02-23T18:05:36.898Z,5.60
2019-02-23T18:08:05.347Z,5.40
2019-02-23T18:10:33.811Z,5.40
2019-02-23T18:13:02.246Z,5.40
2019-02-23T18:15:30.685Z,5.40
2019-02-23T18:17:59.154Z,5.30
2019-02-23T18:20:27.593Z,5.30
2019-02-23T18:22:56.041Z,5.20
2019-02-23T18:25:24.515Z,5.30
2019-02-23T18:27:53.030Z,5.40
2019-02-23T18:30:21.806Z,5.30
2019-02-23T18:32:50.327Z,5.30
2019-02-23T18:35:18.767Z,5.20
2019-02-23T18:37:47.204Z,5.20
2019-02-23T18:40:15.978Z,5.00
2019-02-23T18:42:44.463Z,5.10
2019-02-23T18:45:12.906Z,5.10
2019-02-23T18:47:41.446Z,5.00
2019-02-23T18:52:59.682Z,5.00
2019-02-23T18:55:28.179Z,5.00
2019-02-23T18:58:15.995Z,5.00
2019-02-23T19:00:44.436Z,4.90
2019-02-23T19:03:12.953Z,4.90
2019-02-23T19:05:49.542Z,4.80
2019-02-23T19:08:12.014Z,4.80
2019-02-23T19:10:40.728Z,4.80
2019-02-23T19:13:10.322Z,4.70
2019-02-23T19:15:38.823Z,4.80
2019-02-23T19:18:07.306Z,4.60
2019-02-23T19:20:35.801Z,4.60
2019-02-23T19:23:04.348Z,4.50
2019-02-23T19:25:32.963Z,4.40
2019-02-23T19:28:01.894Z,4.30
2019-02-23T19:30:30.407Z,4.40
2019-02-23T19:32:59.031Z,4.30
2019-02-23T19:35:27.790Z,4.30
2019-02-23T19:37:56.230Z,4.20
2019-02-23T19:40:24.831Z,4.30
2019-02-23T19:42:53.336Z,4.20
2019-02-23T19:45:22.666Z,4.10
2019-02-23T19:47:51.163Z,4.00
2019-02-23T19:50:22.738Z,4.00
2019-02-23T19:52:51.254Z,4.00
2019-02-23T19:55:19.697Z,3.90
2019-02-23T19:57:48.386Z,3.80
2019-02-23T20:00:16.968Z,3.80
2019-02-23T20:02:45.538Z,3.80
2019-02-23T20:05:14.188Z,3.70
2019-02-23T20:07:42.775Z,3.60
2019-02-23T20:10:11.595Z,3.50
2019-02-23T20:12:42.218Z,3.60
2019-02-23T20:15:11.559Z,3.50
2019-02-23T20:17:40.238Z,3.40
2019-02-23T20:20:09.012Z,3.40
2019-02-23T20:22:37.518Z,3.30
2019-02-23T20:25:08.237Z,3.30
2019-02-23T20:27:36.778Z,3.30
2019-02-23T20:30:10.185Z,3.30
2019-02-23T20:32:38.709Z,3.20
2019-02-23T20:35:08.427Z,3.30
2019-02-23T20:37:37.294Z,3.20
2019-02-23T20:40:08.158Z,3.10
2019-02-23T20:42:36.694Z,3.10
2019-02-23T20:45:07.662Z,3.10
2019-02-23T20:47:36.171Z,3.10
2019-02-23T20:50:10.275Z,3.10
2019-02-23T20:52:40.914Z,3.00
2019-02-23T20:55:10.022Z,2.90
2019-02-23T20:57:38.560Z,2.90
2019-02-23T21:00:11.231Z,2.80
2019-02-23T21:02:39.742Z,2.90
2019-02-23T21:05:12.963Z,2.90
2019-02-23T21:07:41.510Z,3.00
2019-02-23T21:10:10.286Z,3.00
2019-02-23T21:12:38.767Z,3.00
2019-02-23T21:15:09.650Z,2.90
2019-02-23T21:17:38.226Z,2.90
2019-02-23T21:20:10.747Z,2.90
2019-02-23T21:22:39.334Z,2.90
2019-02-23T21:25:08.988Z,2.80
2019-02-23T21:27:37.527Z,2.80
2019-02-23T21:30:08.511Z,2.80
2019-02-23T21:32:37.027Z,2.80
2019-02-23T21:35:07.148Z,2.80
2019-02-23T21:37:35.588Z,2.70
2019-02-23T21:40:05.764Z,2.70
2019-02-23T21:42:34.300Z,2.60
2019-02-23T21:45:02.750Z,2.50
2019-02-23T21:47:32.919Z,2.40
2019-02-23T21:50:01.403Z,2.40
2019-02-23T21:52:30.198Z,2.30
2019-02-23T21:54:58.652Z,2.20
2019-02-23T21:57:27.129Z,2.20
2019-02-23T21:59:55.731Z,2.20
2019-02-23T22:02:43.608Z,2.30
2019-02-23T22:05:31.464Z,2.30
2019-02-23T22:07:59.930Z,2.30
2019-02-23T22:10:28.524Z,2.30
2019-02-23T22:12:57.035Z,2.30
2019-02-23T22:15:25.582Z,2.20
2019-02-23T22:18:13.380Z,2.20
2019-02-23T22:20:41.923Z,2.20
2019-02-23T22:23:10.635Z,2.10
2019-02-23T22:25:39.401Z,2.10
2019-02-23T22:28:08.219Z,2.10
2019-02-23T22:30:37.115Z,2.10
2019-02-23T22:33:05.667Z,2.10
2019-02-23T22:35:34.420Z,2.00
2019-02-23T22:38:02.863Z,2.10
2019-02-23T22:40:31.311Z,2.10
2019-02-23T22:42:59.797Z,2.10
2019-02-23T22:45:28.929Z,2.10
2019-02-23T22:47:57.803Z,2.00
2019-02-23T22:53:04.376Z,1.80
2019-02-23T22:55:32.908Z,1.80
2019-02-23T22:58:01.403Z,1.70
2019-02-23T23:00:34.335Z,1.80
2019-02-23T23:03:22.358Z,2.00
2019-02-23T23:05:50.905Z,1.90
2019-02-23T23:08:19.473Z,1.70
2019-02-23T23:10:48.011Z,1.60
2019-02-23T23:13:16.759Z,1.50
2019-02-23T23:15:45.419Z,1.50
2019-02-23T23:18:13.940Z,1.50
2019-02-23T23:20:42.409Z,1.50
2019-02-23T23:23:10.853Z,1.40
2019-02-23T23:25:39.295Z,1.40
2019-02-23T23:28:07.843Z,1.40
2019-02-23T23:30:36.295Z,1.30
2019-02-23T23:33:04.757Z,1.20
2019-02-23T23:35:33.227Z,1.30
2019-02-23T23:38:01.680Z,1.30
2019-02-23T23:40:30.166Z,1.30
2019-02-23T23:43:11.004Z,1.30
2019-02-23T23:45:39.902Z,1.50
2019-02-23T23:48:28.844Z,1.60
2019-02-23T23:50:57.759Z,1.50
2019-02-23T23:53:26.202Z,1.50
2019-02-23T23:55:54.667Z,1.40
2019-02-23T23:58:23.114Z,1.30
